sensor_id;sensor_type;location;lat;lon;timestamp;P1;durP1;ratioP1;P2;durP2;ratioP2
36213;SDS011;37652;50.400;30.628;2022-08-19T00:01:16;9.40;;;3.80;;
36213;SDS011;37652;50.400;30.628;2022-08-19T00:05:18;10.53;;;5.83;;
36213;SDS011;37652;50.400;30.628;2022-08-19T00:07:19;7.15;;;5.07;;
36213;SDS011;37652;50.400;30.628;2022-08-19T00:11:21;7.10;;;4.25;;
36213;SDS011;37652;50.400;30.628;2022-08-19T00:13:22;9.27;;;4.28;;
36213;SDS011;37652;50.400;30.628;2022-08-19T00:15:22;9.50;;;4.75;;
36213;SDS011;37652;50.400;30.628;2022-08-19T00:17:23;8.00;;;4.72;;
36213;SDS011;37652;50.400;30.628;2022-08-19T00:19:24;8.27;;;4.45;;
36213;SDS011;37652;50.400;30.628;2022-08-19T00:21:25;8.13;;;5.13;;
36213;SDS011;37652;50.400;30.628;2022-08-19T00:23:26;7.32;;;4.85;;
36213;SDS011;37652;50.400;30.628;2022-08-19T00:27:28;4.23;;;3.83;;
36213;SDS011;37652;50.400;30.628;2022-08-19T00:29:29;8.88;;;4.25;;
36213;SDS011;37652;50.400;30.628;2022-08-19T00:31:30;9.90;;;4.55;;
36213;SDS011;37652;50.400;30.628;2022-08-19T00:33:32;5.70;;;4.00;;
36213;SDS011;37652;50.400;30.628;2022-08-19T00:35:33;6.25;;;4.40;;
36213;SDS011;37652;50.400;30.628;2022-08-19T00:37:34;5.35;;;4.35;;
36213;SDS011;37652;50.400;30.628;2022-08-19T00:41:36;8.17;;;3.90;;
36213;SDS011;37652;50.400;30.628;2022-08-19T00:43:37;7.43;;;4.50;;
36213;SDS011;37652;50.400;30.628;2022-08-19T00:45:38;5.53;;;4.97;;
36213;SDS011;37652;50.400;30.628;2022-08-19T00:47:41;5.72;;;4.78;;
36213;SDS011;37652;50.400;30.628;2022-08-19T00:49:44;7.78;;;4.30;;
36213;SDS011;37652;50.400;30.628;2022-08-19T00:51:51;10.25;;;5.00;;
36213;SDS011;37652;50.400;30.628;2022-08-19T00:53:56;13.60;;;5.72;;
36213;SDS011;37652;50.400;30.628;2022-08-19T00:55:59;7.35;;;4.80;;
36213;SDS011;37652;50.400;30.628;2022-08-19T00:58:04;8.30;;;4.78;;
36213;SDS011;37652;50.400;30.628;2022-08-19T01:00:12;7.97;;;4.80;;
36213;SDS011;37652;50.400;30.628;2022-08-19T01:02:15;8.05;;;4.78;;
36213;SDS011;37652;50.400;30.628;2022-08-19T01:04:16;6.70;;;4.78;;
36213;SDS011;37652;50.400;30.628;2022-08-19T01:06:17;12.02;;;4.50;;
36213;SDS011;37652;50.400;30.628;2022-08-19T01:08:18;5.82;;;4.22;;
36213;SDS011;37652;50.400;30.628;2022-08-19T01:10:21;11.63;;;4.38;;
36213;SDS011;37652;50.400;30.628;2022-08-19T01:12:24;11.23;;;4.55;;
36213;SDS011;37652;50.400;30.628;2022-08-19T01:14:25;7.55;;;4.97;;
36213;SDS011;37652;50.400;30.628;2022-08-19T01:16:26;9.48;;;4.70;;
36213;SDS011;37652;50.400;30.628;2022-08-19T01:18:29;8.40;;;5.60;;
36213;SDS011;37652;50.400;30.628;2022-08-19T01:20:31;6.63;;;4.75;;
36213;SDS011;37652;50.400;30.628;2022-08-19T01:22:34;13.25;;;5.93;;
36213;SDS011;37652;50.400;30.628;2022-08-19T01:24:40;7.75;;;5.72;;
36213;SDS011;37652;50.400;30.628;2022-08-19T01:26:42;9.55;;;6.38;;
36213;SDS011;37652;50.400;30.628;2022-08-19T01:28:44;13.10;;;5.63;;
36213;SDS011;37652;50.400;30.628;2022-08-19T01:30:47;8.55;;;6.88;;
36213;SDS011;37652;50.400;30.628;2022-08-19T01:32:49;8.40;;;6.68;;
36213;SDS011;37652;50.400;30.628;2022-08-19T01:34:50;7.60;;;6.47;;
36213;SDS011;37652;50.400;30.628;2022-08-19T01:36:51;11.20;;;7.00;;
36213;SDS011;37652;50.400;30.628;2022-08-19T01:38:52;10.70;;;7.32;;
36213;SDS011;37652;50.400;30.628;2022-08-19T01:40:54;15.18;;;6.60;;
36213;SDS011;37652;50.400;30.628;2022-08-19T01:42:55;8.48;;;5.90;;
36213;SDS011;37652;50.400;30.628;2022-08-19T01:44:55;12.43;;;6.15;;
36213;SDS011;37652;50.400;30.628;2022-08-19T01:46:56;10.57;;;6.25;;
36213;SDS011;37652;50.400;30.628;2022-08-19T01:48:57;12.25;;;6.00;;
36213;SDS011;37652;50.400;30.628;2022-08-19T01:50:58;12.07;;;6.55;;
36213;SDS011;37652;50.400;30.628;2022-08-19T01:52:59;13.55;;;7.38;;
36213;SDS011;37652;50.400;30.628;2022-08-19T01:55:01;9.77;;;6.60;;
36213;SDS011;37652;50.400;30.628;2022-08-19T01:57:03;10.00;;;6.43;;
36213;SDS011;37652;50.400;30.628;2022-08-19T01:59:09;14.07;;;6.93;;
36213;SDS011;37652;50.400;30.628;2022-08-19T02:01:12;12.80;;;6.25;;
36213;SDS011;37652;50.400;30.628;2022-08-19T02:03:13;10.32;;;7.22;;
36213;SDS011;37652;50.400;30.628;2022-08-19T02:05:14;11.52;;;6.85;;
36213;SDS011;37652;50.400;30.628;2022-08-19T02:07:20;10.38;;;6.63;;
36213;SDS011;37652;50.400;30.628;2022-08-19T02:09:21;9.85;;;6.53;;
36213;SDS011;37652;50.400;30.628;2022-08-19T02:11:24;10.77;;;6.63;;
36213;SDS011;37652;50.400;30.628;2022-08-19T02:13:27;10.18;;;6.38;;
36213;SDS011;37652;50.400;30.628;2022-08-19T02:15:28;14.40;;;6.82;;
36213;SDS011;37652;50.400;30.628;2022-08-19T02:19:31;9.18;;;6.43;;
36213;SDS011;37652;50.400;30.628;2022-08-19T02:21:32;9.82;;;6.25;;
36213;SDS011;37652;50.400;30.628;2022-08-19T02:23:33;11.65;;;6.38;;
36213;SDS011;37652;50.400;30.628;2022-08-19T02:25:34;12.07;;;6.43;;
36213;SDS011;37652;50.400;30.628;2022-08-19T02:27:35;7.43;;;6.05;;
36213;SDS011;37652;50.400;30.628;2022-08-19T02:29:35;12.95;;;6.28;;
36213;SDS011;37652;50.400;30.628;2022-08-19T02:31:36;9.30;;;6.47;;
36213;SDS011;37652;50.400;30.628;2022-08-19T02:33:37;9.27;;;6.00;;
36213;SDS011;37652;50.400;30.628;2022-08-19T02:35:42;7.88;;;6.00;;
36213;SDS011;37652;50.400;30.628;2022-08-19T02:37:47;10.48;;;6.47;;
36213;SDS011;37652;50.400;30.628;2022-08-19T02:40:06;8.57;;;5.93;;
36213;SDS011;37652;50.400;30.628;2022-08-19T02:42:08;14.90;;;6.07;;
36213;SDS011;37652;50.400;30.628;2022-08-19T02:44:08;9.00;;;6.03;;
36213;SDS011;37652;50.400;30.628;2022-08-19T02:46:20;12.85;;;6.07;;
36213;SDS011;37652;50.400;30.628;2022-08-19T02:48:24;12.77;;;6.38;;
36213;SDS011;37652;50.400;30.628;2022-08-19T02:50:25;8.93;;;6.03;;
36213;SDS011;37652;50.400;30.628;2022-08-19T02:52:26;11.80;;;5.63;;
36213;SDS011;37652;50.400;30.628;2022-08-19T02:54:27;12.70;;;6.13;;
36213;SDS011;37652;50.400;30.628;2022-08-19T02:58:30;8.35;;;6.22;;
36213;SDS011;37652;50.400;30.628;2022-08-19T03:00:31;8.35;;;6.32;;
36213;SDS011;37652;50.400;30.628;2022-08-19T03:04:33;5.57;;;4.93;;
36213;SDS011;37652;50.400;30.628;2022-08-19T03:06:36;11.32;;;5.43;;
36213;SDS011;37652;50.400;30.628;2022-08-19T03:08:38;8.35;;;5.55;;
36213;SDS011;37652;50.400;30.628;2022-08-19T03:10:44;9.55;;;5.72;;
36213;SDS011;37652;50.400;30.628;2022-08-19T03:12:46;12.90;;;5.28;;
36213;SDS011;37652;50.400;30.628;2022-08-19T03:14:46;9.35;;;5.45;;
36213;SDS011;37652;50.400;30.628;2022-08-19T03:16:48;10.32;;;6.75;;
36213;SDS011;37652;50.400;30.628;2022-08-19T03:18:51;12.07;;;6.20;;
36213;SDS011;37652;50.400;30.628;2022-08-19T03:20:53;9.35;;;5.10;;
36213;SDS011;37652;50.400;30.628;2022-08-19T03:22:54;11.98;;;5.80;;
36213;SDS011;37652;50.400;30.628;2022-08-19T03:24:54;10.75;;;6.05;;
36213;SDS011;37652;50.400;30.628;2022-08-19T03:26:55;7.72;;;5.47;;
36213;SDS011;37652;50.400;30.628;2022-08-19T03:28:57;12.48;;;5.65;;
36213;SDS011;37652;50.400;30.628;2022-08-19T03:31:06;9.25;;;5.93;;
36213;SDS011;37652;50.400;30.628;2022-08-19T03:33:10;12.20;;;6.68;;
36213;SDS011;37652;50.400;30.628;2022-08-19T03:35:12;7.93;;;5.68;;
36213;SDS011;37652;50.400;30.628;2022-08-19T03:37:13;8.07;;;6.03;;
36213;SDS011;37652;50.400;30.628;2022-08-19T03:39:15;11.85;;;5.47;;
36213;SDS011;37652;50.400;30.628;2022-08-19T03:41:20;11.23;;;6.10;;
36213;SDS011;37652;50.400;30.628;2022-08-19T03:43:23;10.20;;;5.78;;
36213;SDS011;37652;50.400;30.628;2022-08-19T03:45:24;8.45;;;6.20;;
36213;SDS011;37652;50.400;30.628;2022-08-19T03:47:25;8.20;;;5.10;;
36213;SDS011;37652;50.400;30.628;2022-08-19T03:51:29;11.75;;;5.32;;
36213;SDS011;37652;50.400;30.628;2022-08-19T03:53:32;14.80;;;5.45;;
36213;SDS011;37652;50.400;30.628;2022-08-19T03:55:33;8.63;;;5.93;;
36213;SDS011;37652;50.400;30.628;2022-08-19T03:57:34;14.10;;;6.35;;
36213;SDS011;37652;50.400;30.628;2022-08-19T04:01:36;17.45;;;5.78;;
36213;SDS011;37652;50.400;30.628;2022-08-19T04:03:37;6.55;;;5.50;;
36213;SDS011;37652;50.400;30.628;2022-08-19T04:05:38;11.60;;;5.20;;
36213;SDS011;37652;50.400;30.628;2022-08-19T04:07:39;9.52;;;5.35;;
36213;SDS011;37652;50.400;30.628;2022-08-19T04:09:39;10.20;;;5.63;;
36213;SDS011;37652;50.400;30.628;2022-08-19T04:11:41;7.63;;;6.55;;
36213;SDS011;37652;50.400;30.628;2022-08-19T04:13:55;14.00;;;6.10;;
36213;SDS011;37652;50.400;30.628;2022-08-19T04:15:57;10.25;;;5.00;;
36213;SDS011;37652;50.400;30.628;2022-08-19T04:17:57;10.35;;;5.70;;
36213;SDS011;37652;50.400;30.628;2022-08-19T04:19:59;10.20;;;5.13;;
36213;SDS011;37652;50.400;30.628;2022-08-19T04:24:00;13.13;;;6.67;;
36213;SDS011;37652;50.400;30.628;2022-08-19T04:26:01;12.15;;;6.13;;
36213;SDS011;37652;50.400;30.628;2022-08-19T04:28:03;7.65;;;5.65;;
36213;SDS011;37652;50.400;30.628;2022-08-19T04:30:03;9.45;;;5.45;;
36213;SDS011;37652;50.400;30.628;2022-08-19T04:32:05;10.00;;;5.60;;
36213;SDS011;37652;50.400;30.628;2022-08-19T04:34:08;7.55;;;5.40;;
36213;SDS011;37652;50.400;30.628;2022-08-19T04:36:17;9.25;;;5.78;;
36213;SDS011;37652;50.400;30.628;2022-08-19T04:38:24;8.73;;;6.10;;
36213;SDS011;37652;50.400;30.628;2022-08-19T04:40:25;10.55;;;4.97;;
36213;SDS011;37652;50.400;30.628;2022-08-19T04:42:44;7.78;;;5.53;;
36213;SDS011;37652;50.400;30.628;2022-08-19T04:46:46;9.77;;;5.50;;
36213;SDS011;37652;50.400;30.628;2022-08-19T04:48:48;15.43;;;6.25;;
36213;SDS011;37652;50.400;30.628;2022-08-19T04:52:51;13.10;;;5.40;;
36213;SDS011;37652;50.400;30.628;2022-08-19T04:54:52;11.52;;;5.55;;
36213;SDS011;37652;50.400;30.628;2022-08-19T04:56:55;21.67;;;6.80;;
36213;SDS011;37652;50.400;30.628;2022-08-19T05:00:56;13.17;;;5.13;;
36213;SDS011;37652;50.400;30.628;2022-08-19T05:02:59;14.73;;;5.40;;
36213;SDS011;37652;50.400;30.628;2022-08-19T05:07:01;7.87;;;6.23;;
36213;SDS011;37652;50.400;30.628;2022-08-19T05:11:08;7.20;;;5.28;;
36213;SDS011;37652;50.400;30.628;2022-08-19T05:13:17;5.72;;;5.13;;
36213;SDS011;37652;50.400;30.628;2022-08-19T05:15:19;8.45;;;5.32;;
36213;SDS011;37652;50.400;30.628;2022-08-19T05:19:20;8.60;;;5.07;;
36213;SDS011;37652;50.400;30.628;2022-08-19T05:21:40;15.63;;;6.25;;
36213;SDS011;37652;50.400;30.628;2022-08-19T05:24:00;11.15;;;5.30;;
36213;SDS011;37652;50.400;30.628;2022-08-19T05:26:02;7.47;;;5.25;;
36213;SDS011;37652;50.400;30.628;2022-08-19T05:30:03;10.13;;;5.73;;
36213;SDS011;37652;50.400;30.628;2022-08-19T05:32:05;9.73;;;4.68;;
36213;SDS011;37652;50.400;30.628;2022-08-19T05:34:10;10.05;;;5.03;;
36213;SDS011;37652;50.400;30.628;2022-08-19T05:36:11;8.93;;;4.57;;
36213;SDS011;37652;50.400;30.628;2022-08-19T05:38:13;8.98;;;4.80;;
36213;SDS011;37652;50.400;30.628;2022-08-19T05:42:15;6.40;;;4.43;;
36213;SDS011;37652;50.400;30.628;2022-08-19T05:44:17;7.25;;;4.93;;
36213;SDS011;37652;50.400;30.628;2022-08-19T05:46:18;11.73;;;5.35;;
36213;SDS011;37652;50.400;30.628;2022-08-19T05:48:19;12.07;;;5.53;;
36213;SDS011;37652;50.400;30.628;2022-08-19T05:52:21;12.65;;;4.38;;
36213;SDS011;37652;50.400;30.628;2022-08-19T05:56:23;14.15;;;4.50;;
36213;SDS011;37652;50.400;30.628;2022-08-19T05:58:24;6.60;;;4.57;;
36213;SDS011;37652;50.400;30.628;2022-08-19T06:02:26;12.67;;;4.87;;
36213;SDS011;37652;50.400;30.628;2022-08-19T06:04:27;18.30;;;4.53;;
36213;SDS011;37652;50.400;30.628;2022-08-19T06:06:28;15.18;;;4.90;;
36213;SDS011;37652;50.400;30.628;2022-08-19T06:08:29;10.70;;;5.00;;
36213;SDS011;37652;50.400;30.628;2022-08-19T06:12:31;11.13;;;4.90;;
36213;SDS011;37652;50.400;30.628;2022-08-19T06:14:35;6.97;;;5.22;;
36213;SDS011;37652;50.400;30.628;2022-08-19T06:16:37;11.15;;;5.55;;
36213;SDS011;37652;50.400;30.628;2022-08-19T06:18:39;12.27;;;5.03;;
36213;SDS011;37652;50.400;30.628;2022-08-19T06:22:41;17.73;;;5.18;;
36213;SDS011;37652;50.400;30.628;2022-08-19T06:24:43;13.20;;;4.90;;
36213;SDS011;37652;50.400;30.628;2022-08-19T06:26:46;15.50;;;4.85;;
36213;SDS011;37652;50.400;30.628;2022-08-19T06:28:48;9.45;;;4.50;;
36213;SDS011;37652;50.400;30.628;2022-08-19T06:32:51;8.70;;;4.45;;
36213;SDS011;37652;50.400;30.628;2022-08-19T06:36:52;10.60;;;4.60;;
36213;SDS011;37652;50.400;30.628;2022-08-19T06:38:54;13.38;;;5.00;;
36213;SDS011;37652;50.400;30.628;2022-08-19T06:41:00;18.27;;;5.38;;
36213;SDS011;37652;50.400;30.628;2022-08-19T06:43:02;16.08;;;4.97;;
36213;SDS011;37652;50.400;30.628;2022-08-19T06:47:06;7.05;;;4.35;;
36213;SDS011;37652;50.400;30.628;2022-08-19T06:49:08;8.77;;;4.15;;
36213;SDS011;37652;50.400;30.628;2022-08-19T06:51:14;10.90;;;4.25;;
36213;SDS011;37652;50.400;30.628;2022-08-19T06:53:18;9.32;;;4.85;;
36213;SDS011;37652;50.400;30.628;2022-08-19T06:57:20;9.57;;;4.82;;
36213;SDS011;37652;50.400;30.628;2022-08-19T06:59:22;9.68;;;4.40;;
36213;SDS011;37652;50.400;30.628;2022-08-19T07:01:27;6.15;;;4.90;;
36213;SDS011;37652;50.400;30.628;2022-08-19T07:03:29;12.43;;;4.80;;
36213;SDS011;37652;50.400;30.628;2022-08-19T07:05:39;7.43;;;4.38;;
36213;SDS011;37652;50.400;30.628;2022-08-19T07:07:41;10.70;;;4.43;;
36213;SDS011;37652;50.400;30.628;2022-08-19T07:09:43;9.93;;;4.85;;
36213;SDS011;37652;50.400;30.628;2022-08-19T07:11:49;20.00;;;4.75;;
36213;SDS011;37652;50.400;30.628;2022-08-19T07:13:52;11.63;;;5.05;;
36213;SDS011;37652;50.400;30.628;2022-08-19T07:15:53;9.77;;;4.85;;
36213;SDS011;37652;50.400;30.628;2022-08-19T07:21:55;8.35;;;4.53;;
36213;SDS011;37652;50.400;30.628;2022-08-19T07:23:56;13.07;;;4.60;;
36213;SDS011;37652;50.400;30.628;2022-08-19T07:27:00;12.73;;;4.78;;
36213;SDS011;37652;50.400;30.628;2022-08-19T07:28:30;10.65;;;4.78;;
36213;SDS011;37652;50.400;30.628;2022-08-19T07:30:31;15.13;;;5.07;;
36213;SDS011;37652;50.400;30.628;2022-08-19T07:32:32;7.40;;;4.15;;
36213;SDS011;37652;50.400;30.628;2022-08-19T07:34:33;12.32;;;4.40;;
36213;SDS011;37652;50.400;30.628;2022-08-19T07:36:38;13.43;;;4.85;;
36213;SDS011;37652;50.400;30.628;2022-08-19T07:38:41;11.70;;;5.03;;
36213;SDS011;37652;50.400;30.628;2022-08-19T07:40:43;13.38;;;5.07;;
36213;SDS011;37652;50.400;30.628;2022-08-19T07:42:46;11.05;;;4.90;;
36213;SDS011;37652;50.400;30.628;2022-08-19T07:44:46;11.27;;;5.45;;
36213;SDS011;37652;50.400;30.628;2022-08-19T07:46:53;15.30;;;4.97;;
36213;SDS011;37652;50.400;30.628;2022-08-19T07:48:55;9.80;;;4.57;;
36213;SDS011;37652;50.400;30.628;2022-08-19T07:50:57;11.95;;;5.13;;
36213;SDS011;37652;50.400;30.628;2022-08-19T07:53:01;12.57;;;5.28;;
36213;SDS011;37652;50.400;30.628;2022-08-19T07:55:03;13.15;;;4.20;;
36213;SDS011;37652;50.400;30.628;2022-08-19T07:57:05;11.90;;;4.05;;
36213;SDS011;37652;50.400;30.628;2022-08-19T07:59:06;12.85;;;4.50;;
36213;SDS011;37652;50.400;30.628;2022-08-19T08:01:10;9.45;;;4.68;;
36213;SDS011;37652;50.400;30.628;2022-08-19T08:03:14;9.60;;;5.18;;
36213;SDS011;37652;50.400;30.628;2022-08-19T08:05:16;10.98;;;4.57;;
36213;SDS011;37652;50.400;30.628;2022-08-19T08:07:35;18.98;;;4.68;;
36213;SDS011;37652;50.400;30.628;2022-08-19T08:09:55;14.82;;;5.25;;
36213;SDS011;37652;50.400;30.628;2022-08-19T08:11:58;16.83;;;4.95;;
36213;SDS011;37652;50.400;30.628;2022-08-19T08:14:07;10.82;;;5.43;;
36213;SDS011;37652;50.400;30.628;2022-08-19T08:16:09;18.98;;;4.47;;
36213;SDS011;37652;50.400;30.628;2022-08-19T08:18:10;10.85;;;4.72;;
36213;SDS011;37652;50.400;30.628;2022-08-19T08:20:13;16.42;;;5.13;;
36213;SDS011;37652;50.400;30.628;2022-08-19T08:22:15;16.00;;;4.32;;
36213;SDS011;37652;50.400;30.628;2022-08-19T08:24:35;9.32;;;4.50;;
36213;SDS011;37652;50.400;30.628;2022-08-19T08:26:36;15.73;;;5.00;;
36213;SDS011;37652;50.400;30.628;2022-08-19T08:28:37;14.18;;;5.68;;
36213;SDS011;37652;50.400;30.628;2022-08-19T08:30:38;12.57;;;4.88;;
36213;SDS011;37652;50.400;30.628;2022-08-19T08:32:42;15.25;;;4.93;;
36213;SDS011;37652;50.400;30.628;2022-08-19T08:34:43;11.25;;;4.40;;
36213;SDS011;37652;50.400;30.628;2022-08-19T08:36:45;12.25;;;4.55;;
36213;SDS011;37652;50.400;30.628;2022-08-19T08:38:46;16.27;;;4.10;;
36213;SDS011;37652;50.400;30.628;2022-08-19T08:40:49;13.73;;;4.55;;
36213;SDS011;37652;50.400;30.628;2022-08-19T08:42:56;12.27;;;4.15;;
36213;SDS011;37652;50.400;30.628;2022-08-19T08:45:05;12.70;;;4.35;;
36213;SDS011;37652;50.400;30.628;2022-08-19T08:47:13;8.90;;;4.22;;
36213;SDS011;37652;50.400;30.628;2022-08-19T08:49:26;10.32;;;4.32;;
36213;SDS011;37652;50.400;30.628;2022-08-19T08:51:39;6.80;;;4.32;;
36213;SDS011;37652;50.400;30.628;2022-08-19T08:53:48;13.20;;;4.03;;
36213;SDS011;37652;50.400;30.628;2022-08-19T08:55:51;15.77;;;5.20;;
36213;SDS011;37652;50.400;30.628;2022-08-19T09:00:07;6.57;;;3.90;;
36213;SDS011;37652;50.400;30.628;2022-08-19T09:02:16;11.63;;;4.15;;
36213;SDS011;37652;50.400;30.628;2022-08-19T09:04:17;11.20;;;4.00;;
36213;SDS011;37652;50.400;30.628;2022-08-19T09:10:54;12.55;;;3.53;;
36213;SDS011;37652;50.400;30.628;2022-08-19T09:13:00;10.93;;;4.00;;
36213;SDS011;37652;50.400;30.628;2022-08-19T09:15:12;9.32;;;3.40;;
36213;SDS011;37652;50.400;30.628;2022-08-19T09:17:14;12.68;;;4.30;;
36213;SDS011;37652;50.400;30.628;2022-08-19T09:19:15;13.23;;;3.83;;
36213;SDS011;37652;50.400;30.628;2022-08-19T09:21:17;8.25;;;4.38;;
36213;SDS011;37652;50.400;30.628;2022-08-19T09:23:18;19.48;;;4.70;;
36213;SDS011;37652;50.400;30.628;2022-08-19T09:25:20;12.80;;;4.45;;
36213;SDS011;37652;50.400;30.628;2022-08-19T09:27:23;23.25;;;4.55;;
36213;SDS011;37652;50.400;30.628;2022-08-19T09:29:25;24.23;;;4.80;;
36213;SDS011;37652;50.400;30.628;2022-08-19T09:31:27;12.52;;;4.47;;
36213;SDS011;37652;50.400;30.628;2022-08-19T09:33:29;9.43;;;4.15;;
36213;SDS011;37652;50.400;30.628;2022-08-19T09:35:31;10.73;;;4.05;;
36213;SDS011;37652;50.400;30.628;2022-08-19T09:37:32;9.27;;;4.40;;
36213;SDS011;37652;50.400;30.628;2022-08-19T09:39:33;10.07;;;3.90;;
36213;SDS011;37652;50.400;30.628;2022-08-19T09:41:34;13.15;;;4.35;;
36213;SDS011;37652;50.400;30.628;2022-08-19T09:43:35;8.88;;;4.07;;
36213;SDS011;37652;50.400;30.628;2022-08-19T09:45:36;8.68;;;4.03;;
36213;SDS011;37652;50.400;30.628;2022-08-19T09:47:37;7.25;;;4.47;;
36213;SDS011;37652;50.400;30.628;2022-08-19T09:49:38;9.73;;;4.32;;
36213;SDS011;37652;50.400;30.628;2022-08-19T09:51:39;8.25;;;4.82;;
36213;SDS011;37652;50.400;30.628;2022-08-19T09:53:41;6.20;;;4.35;;
36213;SDS011;37652;50.400;30.628;2022-08-19T09:55:43;8.07;;;4.53;;
36213;SDS011;37652;50.400;30.628;2022-08-19T09:57:44;8.98;;;4.50;;
36213;SDS011;37652;50.400;30.628;2022-08-19T09:59:45;9.07;;;4.40;;
36213;SDS011;37652;50.400;30.628;2022-08-19T10:01:45;10.48;;;4.90;;
36213;SDS011;37652;50.400;30.628;2022-08-19T10:03:48;10.98;;;5.10;;
36213;SDS011;37652;50.400;30.628;2022-08-19T10:05:51;13.20;;;4.78;;
36213;SDS011;37652;50.400;30.628;2022-08-19T10:07:53;10.73;;;4.45;;
36213;SDS011;37652;50.400;30.628;2022-08-19T10:09:54;14.02;;;5.00;;
36213;SDS011;37652;50.400;30.628;2022-08-19T10:11:55;10.50;;;4.75;;
36213;SDS011;37652;50.400;30.628;2022-08-19T10:13:56;12.73;;;5.47;;
36213;SDS011;37652;50.400;30.628;2022-08-19T10:16:07;9.45;;;4.70;;
36213;SDS011;37652;50.400;30.628;2022-08-19T10:18:10;12.38;;;5.13;;
36213;SDS011;37652;50.400;30.628;2022-08-19T10:20:11;7.60;;;4.72;;
36213;SDS011;37652;50.400;30.628;2022-08-19T10:22:12;13.30;;;5.63;;
36213;SDS011;37652;50.400;30.628;2022-08-19T10:24:13;15.27;;;5.53;;
36213;SDS011;37652;50.400;30.628;2022-08-19T10:26:17;16.17;;;5.13;;
36213;SDS011;37652;50.400;30.628;2022-08-19T10:28:23;15.63;;;5.28;;
36213;SDS011;37652;50.400;30.628;2022-08-19T10:30:23;14.65;;;5.18;;
36213;SDS011;37652;50.400;30.628;2022-08-19T10:32:24;9.30;;;5.85;;
36213;SDS011;37652;50.400;30.628;2022-08-19T10:34:26;11.88;;;6.32;;
36213;SDS011;37652;50.400;30.628;2022-08-19T10:36:29;15.38;;;5.13;;
36213;SDS011;37652;50.400;30.628;2022-08-19T10:38:32;11.93;;;5.40;;
36213;SDS011;37652;50.400;30.628;2022-08-19T10:40:33;14.75;;;6.13;;
36213;SDS011;37652;50.400;30.628;2022-08-19T10:42:34;12.45;;;5.47;;
36213;SDS011;37652;50.400;30.628;2022-08-19T10:44:36;10.68;;;5.70;;
36213;SDS011;37652;50.400;30.628;2022-08-19T10:46:38;8.45;;;5.72;;
36213;SDS011;37652;50.400;30.628;2022-08-19T10:48:44;14.30;;;6.72;;
36213;SDS011;37652;50.400;30.628;2022-08-19T10:50:45;9.30;;;5.45;;
36213;SDS011;37652;50.400;30.628;2022-08-19T10:53:05;12.77;;;6.30;;
36213;SDS011;37652;50.400;30.628;2022-08-19T10:55:10;9.82;;;5.38;;
36213;SDS011;37652;50.400;30.628;2022-08-19T10:57:30;14.82;;;5.75;;
36213;SDS011;37652;50.400;30.628;2022-08-19T10:59:31;10.90;;;5.25;;
36213;SDS011;37652;50.400;30.628;2022-08-19T11:01:32;8.82;;;4.93;;
36213;SDS011;37652;50.400;30.628;2022-08-19T11:03:34;12.20;;;5.13;;
36213;SDS011;37652;50.400;30.628;2022-08-19T11:05:35;15.27;;;5.70;;
36213;SDS011;37652;50.400;30.628;2022-08-19T11:07:38;16.02;;;5.60;;
36213;SDS011;37652;50.400;30.628;2022-08-19T11:09:41;10.18;;;5.57;;
36213;SDS011;37652;50.400;30.628;2022-08-19T11:11:42;9.93;;;5.57;;
36213;SDS011;37652;50.400;30.628;2022-08-19T11:13:43;14.00;;;5.43;;
36213;SDS011;37652;50.400;30.628;2022-08-19T11:15:45;8.77;;;4.97;;
36213;SDS011;37652;50.400;30.628;2022-08-19T11:17:47;12.70;;;5.07;;
36213;SDS011;37652;50.400;30.628;2022-08-19T11:19:48;6.68;;;4.40;;
36213;SDS011;37652;50.400;30.628;2022-08-19T11:21:50;14.43;;;5.97;;
36213;SDS011;37652;50.400;30.628;2022-08-19T11:23:53;11.35;;;4.28;;
36213;SDS011;37652;50.400;30.628;2022-08-19T11:25:56;16.45;;;5.35;;
36213;SDS011;37652;50.400;30.628;2022-08-19T11:27:59;12.00;;;5.30;;
36213;SDS011;37652;50.400;30.628;2022-08-19T11:30:00;12.27;;;5.30;;
36213;SDS011;37652;50.400;30.628;2022-08-19T11:32:03;6.85;;;5.07;;
36213;SDS011;37652;50.400;30.628;2022-08-19T11:34:07;11.07;;;5.57;;
36213;SDS011;37652;50.400;30.628;2022-08-19T11:36:10;11.02;;;4.68;;
36213;SDS011;37652;50.400;30.628;2022-08-19T11:38:11;10.07;;;5.30;;
36213;SDS011;37652;50.400;30.628;2022-08-19T11:40:13;12.32;;;4.78;;
36213;SDS011;37652;50.400;30.628;2022-08-19T11:42:14;14.75;;;5.80;;
36213;SDS011;37652;50.400;30.628;2022-08-19T11:44:33;7.55;;;5.07;;
36213;SDS011;37652;50.400;30.628;2022-08-19T11:46:35;10.35;;;5.60;;
36213;SDS011;37652;50.400;30.628;2022-08-19T11:48:37;12.95;;;5.32;;
36213;SDS011;37652;50.400;30.628;2022-08-19T11:50:38;8.10;;;5.07;;
36213;SDS011;37652;50.400;30.628;2022-08-19T11:52:42;7.80;;;4.93;;
36213;SDS011;37652;50.400;30.628;2022-08-19T11:54:44;10.40;;;4.88;;
36213;SDS011;37652;50.400;30.628;2022-08-19T11:56:45;12.60;;;5.53;;
36213;SDS011;37652;50.400;30.628;2022-08-19T11:58:47;11.32;;;4.93;;
36213;SDS011;37652;50.400;30.628;2022-08-19T12:00:48;7.95;;;4.40;;
36213;SDS011;37652;50.400;30.628;2022-08-19T12:02:49;15.85;;;4.85;;
36213;SDS011;37652;50.400;30.628;2022-08-19T12:04:49;13.90;;;5.35;;
36213;SDS011;37652;50.400;30.628;2022-08-19T12:06:50;9.85;;;5.13;;
36213;SDS011;37652;50.400;30.628;2022-08-19T12:08:52;11.43;;;5.38;;
36213;SDS011;37652;50.400;30.628;2022-08-19T12:10:53;11.05;;;5.20;;
36213;SDS011;37652;50.400;30.628;2022-08-19T12:12:54;8.05;;;4.78;;
36213;SDS011;37652;50.400;30.628;2022-08-19T12:14:55;9.40;;;4.45;;
36213;SDS011;37652;50.400;30.628;2022-08-19T12:16:58;9.15;;;4.72;;
36213;SDS011;37652;50.400;30.628;2022-08-19T12:19:00;7.25;;;4.18;;
36213;SDS011;37652;50.400;30.628;2022-08-19T12:21:04;12.48;;;4.75;;
36213;SDS011;37652;50.400;30.628;2022-08-19T12:23:05;13.52;;;4.97;;
36213;SDS011;37652;50.400;30.628;2022-08-19T12:25:08;8.85;;;4.95;;
36213;SDS011;37652;50.400;30.628;2022-08-19T12:27:10;10.57;;;4.72;;
36213;SDS011;37652;50.400;30.628;2022-08-19T12:29:11;14.55;;;5.38;;
36213;SDS011;37652;50.400;30.628;2022-08-19T12:31:11;11.90;;;4.60;;
36213;SDS011;37652;50.400;30.628;2022-08-19T12:33:12;11.98;;;4.90;;
36213;SDS011;37652;50.400;30.628;2022-08-19T12:35:13;16.92;;;5.53;;
36213;SDS011;37652;50.400;30.628;2022-08-19T12:37:14;11.25;;;5.38;;
36213;SDS011;37652;50.400;30.628;2022-08-19T12:39:16;9.40;;;5.13;;
36213;SDS011;37652;50.400;30.628;2022-08-19T12:41:18;12.82;;;5.40;;
36213;SDS011;37652;50.400;30.628;2022-08-19T12:43:22;9.57;;;5.93;;
36213;SDS011;37652;50.400;30.628;2022-08-19T12:45:22;13.80;;;5.82;;
36213;SDS011;37652;50.400;30.628;2022-08-19T12:47:23;11.25;;;5.60;;
36213;SDS011;37652;50.400;30.628;2022-08-19T12:49:30;7.95;;;5.65;;
36213;SDS011;37652;50.400;30.628;2022-08-19T12:51:33;9.23;;;5.15;;
36213;SDS011;37652;50.400;30.628;2022-08-19T12:53:34;8.35;;;5.22;;
36213;SDS011;37652;50.400;30.628;2022-08-19T12:55:35;14.05;;;6.05;;
36213;SDS011;37652;50.400;30.628;2022-08-19T12:57:37;9.27;;;5.85;;
36213;SDS011;37652;50.400;30.628;2022-08-19T12:59:38;9.20;;;5.35;;
36213;SDS011;37652;50.400;30.628;2022-08-19T13:01:39;9.07;;;4.95;;
36213;SDS011;37652;50.400;30.628;2022-08-19T13:03:41;14.95;;;5.57;;
36213;SDS011;37652;50.400;30.628;2022-08-19T13:05:43;13.68;;;5.85;;
36213;SDS011;37652;50.400;30.628;2022-08-19T13:07:44;11.25;;;5.68;;